Scf Explorer — WDE2863 — position and weather

sailwx.info

Track history (hours):
 
Tides and Currents Weather Stations Pressure Air Temp Water Temp Dewpoint Dewpoint Depression Visibility Wind Speed Wind Dir Waves Ship Positions

Scf Explorer

Owner: SCF Waxler Marine LLC, St Rose, LA. More information available from US FCC via Universal Licensing System and Coast Guard Vessel Documentation Center.

Last reported at 2015-Jan-22 11:16 UTC. Time now 2015-Jan-26 08:25 UTC.
Position N 29°21' W 094°49'.

Length 35 m; draft 2.3 m.

Type: Ship (hazmat cat B). MMSI: 367330620.

Date/timePositionNaut miles runAvg speedWind from/ knotsBaromVisibWave heightAir tempDewpointWater temp
2015-Jan-22 11:16N 29°21' W 094°49'0 0.0
2015-Jan-22 10:30N 29°21' W 094°49'4 0.1
2015-Jan-20 15:18N 29°22' W 094°53'0 0.0
2015-Jan-19 20:18N 29°23' W 094°53'9 4.4
2015-Jan-19 18:20N 29°25' W 094°44'0 0.3
2015-Jan-19 17:18N 29°25' W 094°43'0 0.0
2015-Jan-19 16:32N 29°25' W 094°43'0 0.0
2015-Jan-19 15:28N 29°25' W 094°43'0 0.0
2015-Jan-19 14:33N 29°25' W 094°43'0 0.0
2015-Jan-19 13:32N 29°25' W 094°43'0 0.0
2015-Jan-19 09:08N 29°25' W 094°43'0 0.0
2015-Jan-19 08:33N 29°25' W 094°43'0 0.0
2015-Jan-19 07:33N 29°25' W 094°43'0 0.0
2015-Jan-19 06:33N 29°25' W 094°43'0 0.0
2015-Jan-19 05:33N 29°25' W 094°43'0 0.0
2015-Jan-19 04:33N 29°25' W 094°43'0 0.0
2015-Jan-19 02:04N 29°25' W 094°43'0 0.0
2015-Jan-19 01:33N 29°25' W 094°43'0 0.0
2015-Jan-19 00:32N 29°25' W 094°43'0 0.0
2015-Jan-18 23:33N 29°25' W 094°43'0 0.0
2015-Jan-18 22:20N 29°25' W 094°43'0 0.0
2015-Jan-18 21:31N 29°25' W 094°43'0 0.0
2015-Jan-18 20:33N 29°25' W 094°43'0 0.0
2015-Jan-18 19:22N 29°25' W 094°43'0 0.1
2015-Jan-18 16:31N 29°25' W 094°43'0 0.0
2015-Jan-18 15:31N 29°25' W 094°43'0 0.0
2015-Jan-18 14:33N 29°25' W 094°43'0 0.0
2015-Jan-18 13:33N 29°25' W 094°43'0 0.0
2015-Jan-18 05:33N 29°25' W 094°43'0 0.0
2015-Jan-18 04:30N 29°25' W 094°43'0 0.0
2015-Jan-18 03:33N 29°25' W 094°43'1 0.2
2015-Jan-18 01:18N 29°26' W 094°43'1 0.3
2015-Jan-17 23:24N 29°25' W 094°43'0 0.0
2015-Jan-17 21:24N 29°25' W 094°43'0 0.0
2015-Jan-17 20:20N 29°25' W 094°43'0 0.0
2015-Jan-17 17:25N 29°25' W 094°43'0 0.0
2015-Jan-17 16:24N 29°25' W 094°43'0 0.0
2015-Jan-17 15:14N 29°25' W 094°43'0 0.0
2015-Jan-17 14:24N 29°25' W 094°43'0 0.0
2015-Jan-17 13:21N 29°25' W 094°43'1 0.0
2015-Jan-16 20:08N 29°25' W 094°44'0 0.0
2015-Jan-16 19:28N 29°25' W 094°44'0 0.0
2015-Jan-16 18:31N 29°25' W 094°44'0 0.0
2015-Jan-16 17:33N 29°25' W 094°44'0 0.0
2015-Jan-16 16:33N 29°25' W 094°44'0 0.0
2015-Jan-16 15:33N 29°25' W 094°44'0 0.0
2015-Jan-16 14:32N 29°25' W 094°44'0 0.0
2015-Jan-16 13:33N 29°25' W 094°44'0 0.0
2015-Jan-16 12:32N 29°25' W 094°44'0 0.0
2015-Jan-16 11:33N 29°25' W 094°44'0 0.0
2015-Jan-16 10:11N 29°25' W 094°44'0 0.0
2015-Jan-16 06:33N 29°25' W 094°44'0 0.0
2015-Jan-15 23:17N 29°25' W 094°44'0 0.0
2015-Jan-15 16:20N 29°25' W 094°44'0 0.0
2015-Jan-15 14:20N 29°25' W 094°44'7 0.6
2015-Jan-15 03:33N 29°28' W 094°51'7 7.2
2015-Jan-15 02:33N 29°34' W 094°55'7 7.4
2015-Jan-15 01:33N 29°41' W 094°59'6 6.3
2015-Jan-15 00:31N 29°45' W 095°04'6 5.9
2015-Jan-14 23:32N 29°45' W 095°11'1 1.2
2015-Jan-14 22:33N 29°45' W 095°12'0 0.0
2015-Jan-14 21:31N 29°45' W 095°12'0 0.0
2015-Jan-14 20:32N 29°45' W 095°12'2 0.7
2015-Jan-14 17:30N 29°45' W 095°10'2 2.0
2015-Jan-14 16:32N 29°44' W 095°12'0 0.1
2015-Jan-14 15:33N 29°44' W 095°12'0 0.0
2015-Jan-14 14:33N 29°44' W 095°12'0 0.0
2015-Jan-14 04:33N 29°44' W 095°12'0 0.0
2015-Jan-14 03:31N 29°44' W 095°12'2 1.3
2015-Jan-14 02:13N 29°45' W 095°10'4 5.0
2015-Jan-14 01:29N 29°45' W 095°06'5 4.9
2015-Jan-14 00:33N 29°43' W 095°01'6 6.4
2015-Jan-13 23:33N 29°37' W 094°58'7 7.4
2015-Jan-13 22:33N 29°31' W 094°53'10 2.0
2015-Jan-13 17:15N 29°26' W 094°43'  
Track history (hours):
 
Tides and Currents Weather Stations Pressure Air Temp Water Temp Dewpoint Dewpoint Depression Visibility Wind Speed Wind Dir Waves Ship Positions

Scf Explorer

Owner: SCF Waxler Marine LLC, St Rose, LA. More information available from US FCC via Universal Licensing System and Coast Guard Vessel Documentation Center.

Last reported at 2015-Jan-22 11:16 UTC. Time now 2015-Jan-26 08:25 UTC.
Position N 29°21' W 094°49'.

Length 35 m; draft 2.3 m.

Type: Ship (hazmat cat B). MMSI: 367330620.

Date/timePositionNaut miles runAvg speedWind from/ knotsBaromVisibWave heightAir tempDewpointWater temp
2015-Jan-22 11:16N 29°21' W 094°49'0 0.0
2015-Jan-22 10:30N 29°21' W 094°49'4 0.1
2015-Jan-20 15:18N 29°22' W 094°53'0 0.0
2015-Jan-19 20:18N 29°23' W 094°53'9 4.4
2015-Jan-19 18:20N 29°25' W 094°44'0 0.3
2015-Jan-19 17:18N 29°25' W 094°43'0 0.0
2015-Jan-19 16:32N 29°25' W 094°43'0 0.0
2015-Jan-19 15:28N 29°25' W 094°43'0 0.0
2015-Jan-19 14:33N 29°25' W 094°43'0 0.0
2015-Jan-19 13:32N 29°25' W 094°43'0 0.0
2015-Jan-19 09:08N 29°25' W 094°43'0 0.0
2015-Jan-19 08:33N 29°25' W 094°43'0 0.0
2015-Jan-19 07:33N 29°25' W 094°43'0 0.0
2015-Jan-19 06:33N 29°25' W 094°43'0 0.0
2015-Jan-19 05:33N 29°25' W 094°43'0 0.0
2015-Jan-19 04:33N 29°25' W 094°43'0 0.0
2015-Jan-19 02:04N 29°25' W 094°43'0 0.0
2015-Jan-19 01:33N 29°25' W 094°43'0 0.0
2015-Jan-19 00:32N 29°25' W 094°43'0 0.0
2015-Jan-18 23:33N 29°25' W 094°43'0 0.0
2015-Jan-18 22:20N 29°25' W 094°43'0 0.0
2015-Jan-18 21:31N 29°25' W 094°43'0 0.0
2015-Jan-18 20:33N 29°25' W 094°43'0 0.0
2015-Jan-18 19:22N 29°25' W 094°43'0 0.1
2015-Jan-18 16:31N 29°25' W 094°43'0 0.0
2015-Jan-18 15:31N 29°25' W 094°43'0 0.0
2015-Jan-18 14:33N 29°25' W 094°43'0 0.0
2015-Jan-18 13:33N 29°25' W 094°43'0 0.0
2015-Jan-18 05:33N 29°25' W 094°43'0 0.0
2015-Jan-18 04:30N 29°25' W 094°43'0 0.0
2015-Jan-18 03:33N 29°25' W 094°43'1 0.2
2015-Jan-18 01:18N 29°26' W 094°43'1 0.3
2015-Jan-17 23:24N 29°25' W 094°43'0 0.0
2015-Jan-17 21:24N 29°25' W 094°43'0 0.0
2015-Jan-17 20:20N 29°25' W 094°43'0 0.0
2015-Jan-17 17:25N 29°25' W 094°43'0 0.0
2015-Jan-17 16:24N 29°25' W 094°43'0 0.0
2015-Jan-17 15:14N 29°25' W 094°43'0 0.0
2015-Jan-17 14:24N 29°25' W 094°43'0 0.0
2015-Jan-17 13:21N 29°25' W 094°43'1 0.0
2015-Jan-16 20:08N 29°25' W 094°44'0 0.0
2015-Jan-16 19:28N 29°25' W 094°44'0 0.0
2015-Jan-16 18:31N 29°25' W 094°44'0 0.0
2015-Jan-16 17:33N 29°25' W 094°44'0 0.0
2015-Jan-16 16:33N 29°25' W 094°44'0 0.0
2015-Jan-16 15:33N 29°25' W 094°44'0 0.0
2015-Jan-16 14:32N 29°25' W 094°44'0 0.0
2015-Jan-16 13:33N 29°25' W 094°44'0 0.0
2015-Jan-16 12:32N 29°25' W 094°44'0 0.0
2015-Jan-16 11:33N 29°25' W 094°44'0 0.0
2015-Jan-16 10:11N 29°25' W 094°44'0 0.0
2015-Jan-16 06:33N 29°25' W 094°44'0 0.0
2015-Jan-15 23:17N 29°25' W 094°44'0 0.0
2015-Jan-15 16:20N 29°25' W 094°44'0 0.0
2015-Jan-15 14:20N 29°25' W 094°44'7 0.6
2015-Jan-15 03:33N 29°28' W 094°51'7 7.2
2015-Jan-15 02:33N 29°34' W 094°55'7 7.4
2015-Jan-15 01:33N 29°41' W 094°59'6 6.3
2015-Jan-15 00:31N 29°45' W 095°04'6 5.9
2015-Jan-14 23:32N 29°45' W 095°11'1 1.2
2015-Jan-14 22:33N 29°45' W 095°12'0 0.0
2015-Jan-14 21:31N 29°45' W 095°12'0 0.0
2015-Jan-14 20:32N 29°45' W 095°12'2 0.7
2015-Jan-14 17:30N 29°45' W 095°10'2 2.0
2015-Jan-14 16:32N 29°44' W 095°12'0 0.1
2015-Jan-14 15:33N 29°44' W 095°12'0 0.0
2015-Jan-14 14:33N 29°44' W 095°12'0 0.0
2015-Jan-14 04:33N 29°44' W 095°12'0 0.0
2015-Jan-14 03:31N 29°44' W 095°12'2 1.3
2015-Jan-14 02:13N 29°45' W 095°10'4 5.0
2015-Jan-14 01:29N 29°45' W 095°06'5 4.9
2015-Jan-14 00:33N 29°43' W 095°01'6 6.4
2015-Jan-13 23:33N 29°37' W 094°58'7 7.4
2015-Jan-13 22:33N 29°31' W 094°53'10 2.0
2015-Jan-13 17:15N 29°26' W 094°43'  

Dump ship's entire track history